sensor_id;sensor_type;location;lat;lon;timestamp;temperature;humidity
19970;DHT22;10146;47.754;9.566;2022-08-07T00:01:30;16.90;99.90
19970;DHT22;10146;47.754;9.566;2022-08-07T00:03:55;16.80;99.90
19970;DHT22;10146;47.754;9.566;2022-08-07T00:06:21;16.90;99.90
19970;DHT22;10146;47.754;9.566;2022-08-07T00:08:47;16.90;99.90
19970;DHT22;10146;47.754;9.566;2022-08-07T00:11:13;16.90;99.90
19970;DHT22;10146;47.754;9.566;2022-08-07T00:13:38;16.90;99.90
19970;DHT22;10146;47.754;9.566;2022-08-07T00:16:06;16.80;99.90
19970;DHT22;10146;47.754;9.566;2022-08-07T00:18:32;16.90;99.90
19970;DHT22;10146;47.754;9.566;2022-08-07T00:21:03;16.80;99.90
19970;DHT22;10146;47.754;9.566;2022-08-07T00:23:31;16.90;99.90
19970;DHT22;10146;47.754;9.566;2022-08-07T00:25:57;16.90;99.90
19970;DHT22;10146;47.754;9.566;2022-08-07T00:28:23;16.90;99.90
19970;DHT22;10146;47.754;9.566;2022-08-07T00:30:49;16.90;99.90
19970;DHT22;10146;47.754;9.566;2022-08-07T00:33:15;16.90;99.90
19970;DHT22;10146;47.754;9.566;2022-08-07T00:35:40;16.80;99.90
19970;DHT22;10146;47.754;9.566;2022-08-07T00:38:06;16.80;99.90
19970;DHT22;10146;47.754;9.566;2022-08-07T00:40:32;16.80;99.90
19970;DHT22;10146;47.754;9.566;2022-08-07T00:42:58;16.80;99.90
19970;DHT22;10146;47.754;9.566;2022-08-07T00:45:23;16.90;99.90
19970;DHT22;10146;47.754;9.566;2022-08-07T00:47:49;16.80;99.90
19970;DHT22;10146;47.754;9.566;2022-08-07T00:50:15;16.80;99.90
19970;DHT22;10146;47.754;9.566;2022-08-07T00:52:42;16.80;99.90
19970;DHT22;10146;47.754;9.566;2022-08-07T00:55:08;16.80;99.90
19970;DHT22;10146;47.754;9.566;2022-08-07T00:57:33;16.80;99.90
19970;DHT22;10146;47.754;9.566;2022-08-07T00:59:59;16.70;99.90
19970;DHT22;10146;47.754;9.566;2022-08-07T01:02:25;16.70;99.90
19970;DHT22;10146;47.754;9.566;2022-08-07T01:04:51;16.70;99.90
19970;DHT22;10146;47.754;9.566;2022-08-07T01:07:20;16.60;99.90
19970;DHT22;10146;47.754;9.566;2022-08-07T01:09:46;16.60;99.90
19970;DHT22;10146;47.754;9.566;2022-08-07T01:12:13;16.60;99.90
19970;DHT22;10146;47.754;9.566;2022-08-07T01:14:40;16.60;99.90
19970;DHT22;10146;47.754;9.566;2022-08-07T01:17:05;16.60;99.90
19970;DHT22;10146;47.754;9.566;2022-08-07T01:19:32;16.60;99.90
19970;DHT22;10146;47.754;9.566;2022-08-07T01:21:59;16.70;99.90
19970;DHT22;10146;47.754;9.566;2022-08-07T01:24:26;16.70;99.90
19970;DHT22;10146;47.754;9.566;2022-08-07T01:26:52;16.70;99.90
19970;DHT22;10146;47.754;9.566;2022-08-07T01:29:22;16.70;99.90
19970;DHT22;10146;47.754;9.566;2022-08-07T01:31:49;16.60;99.90
19970;DHT22;10146;47.754;9.566;2022-08-07T01:34:16;16.60;99.90
19970;DHT22;10146;47.754;9.566;2022-08-07T01:36:48;16.60;99.90
19970;DHT22;10146;47.754;9.566;2022-08-07T01:39:14;16.50;99.90
19970;DHT22;10146;47.754;9.566;2022-08-07T01:41:41;16.60;99.90
19970;DHT22;10146;47.754;9.566;2022-08-07T01:44:10;16.50;99.90
19970;DHT22;10146;47.754;9.566;2022-08-07T01:46:38;16.50;99.90
19970;DHT22;10146;47.754;9.566;2022-08-07T01:49:05;16.50;99.90
19970;DHT22;10146;47.754;9.566;2022-08-07T01:51:31;16.50;99.90
19970;DHT22;10146;47.754;9.566;2022-08-07T01:54:01;16.50;99.90
19970;DHT22;10146;47.754;9.566;2022-08-07T01:56:33;16.50;99.90
19970;DHT22;10146;47.754;9.566;2022-08-07T01:59:05;16.60;99.90
19970;DHT22;10146;47.754;9.566;2022-08-07T02:01:35;16.60;99.90
19970;DHT22;10146;47.754;9.566;2022-08-07T02:04:07;16.60;99.90
19970;DHT22;10146;47.754;9.566;2022-08-07T02:06:34;16.60;99.90
19970;DHT22;10146;47.754;9.566;2022-08-07T02:09:05;16.60;99.90
19970;DHT22;10146;47.754;9.566;2022-08-07T02:11:37;16.60;99.90
19970;DHT22;10146;47.754;9.566;2022-08-07T02:14:03;16.60;99.90
19970;DHT22;10146;47.754;9.566;2022-08-07T02:16:33;16.50;99.90
19970;DHT22;10146;47.754;9.566;2022-08-07T02:19:03;16.50;99.90
19970;DHT22;10146;47.754;9.566;2022-08-07T02:21:31;16.60;99.90
19970;DHT22;10146;47.754;9.566;2022-08-07T02:23:58;16.60;99.90
19970;DHT22;10146;47.754;9.566;2022-08-07T02:26:26;16.60;99.90
19970;DHT22;10146;47.754;9.566;2022-08-07T02:28:52;16.50;99.90
19970;DHT22;10146;47.754;9.566;2022-08-07T02:31:21;16.50;99.90
19970;DHT22;10146;47.754;9.566;2022-08-07T02:33:48;16.50;99.90
19970;DHT22;10146;47.754;9.566;2022-08-07T02:36:15;16.50;99.90
19970;DHT22;10146;47.754;9.566;2022-08-07T02:38:42;16.50;99.90
19970;DHT22;10146;47.754;9.566;2022-08-07T02:41:09;16.50;99.90
19970;DHT22;10146;47.754;9.566;2022-08-07T02:43:38;16.50;99.90
19970;DHT22;10146;47.754;9.566;2022-08-07T02:46:06;16.50;99.90
19970;DHT22;10146;47.754;9.566;2022-08-07T02:48:33;16.50;99.90
19970;DHT22;10146;47.754;9.566;2022-08-07T02:51:04;16.50;99.90
19970;DHT22;10146;47.754;9.566;2022-08-07T02:53:32;16.50;99.90
19970;DHT22;10146;47.754;9.566;2022-08-07T02:56:00;16.50;99.90
19970;DHT22;10146;47.754;9.566;2022-08-07T02:58:27;16.50;99.90
19970;DHT22;10146;47.754;9.566;2022-08-07T03:00:55;16.50;99.90
19970;DHT22;10146;47.754;9.566;2022-08-07T03:03:22;16.50;99.90
19970;DHT22;10146;47.754;9.566;2022-08-07T03:05:52;16.50;99.90
19970;DHT22;10146;47.754;9.566;2022-08-07T03:08:18;16.50;99.90
19970;DHT22;10146;47.754;9.566;2022-08-07T03:10:45;16.40;99.90
19970;DHT22;10146;47.754;9.566;2022-08-07T03:13:13;16.50;99.90
19970;DHT22;10146;47.754;9.566;2022-08-07T03:15:39;16.50;99.90
19970;DHT22;10146;47.754;9.566;2022-08-07T03:18:05;16.50;99.90
19970;DHT22;10146;47.754;9.566;2022-08-07T03:20:31;16.50;99.90
19970;DHT22;10146;47.754;9.566;2022-08-07T03:22:57;16.50;99.90
19970;DHT22;10146;47.754;9.566;2022-08-07T03:25:26;16.40;99.90
19970;DHT22;10146;47.754;9.566;2022-08-07T03:27:53;16.40;99.90
19970;DHT22;10146;47.754;9.566;2022-08-07T03:30:20;16.40;99.90
19970;DHT22;10146;47.754;9.566;2022-08-07T03:32:48;16.30;99.90
19970;DHT22;10146;47.754;9.566;2022-08-07T03:35:25;16.40;99.90
19970;DHT22;10146;47.754;9.566;2022-08-07T03:38:02;16.40;99.90
19970;DHT22;10146;47.754;9.566;2022-08-07T03:40:28;16.40;99.90
19970;DHT22;10146;47.754;9.566;2022-08-07T03:42:55;16.40;99.90
19970;DHT22;10146;47.754;9.566;2022-08-07T03:45:23;16.40;99.90
19970;DHT22;10146;47.754;9.566;2022-08-07T03:47:50;16.40;99.90
19970;DHT22;10146;47.754;9.566;2022-08-07T03:50:19;16.40;99.90
19970;DHT22;10146;47.754;9.566;2022-08-07T03:52:47;16.50;99.90
19970;DHT22;10146;47.754;9.566;2022-08-07T03:55:13;16.40;99.90
19970;DHT22;10146;47.754;9.566;2022-08-07T03:57:40;16.40;99.90
19970;DHT22;10146;47.754;9.566;2022-08-07T04:00:07;16.40;99.90
19970;DHT22;10146;47.754;9.566;2022-08-07T04:02:33;16.40;99.90
19970;DHT22;10146;47.754;9.566;2022-08-07T04:04:59;16.40;99.90
19970;DHT22;10146;47.754;9.566;2022-08-07T04:07:25;16.40;99.90
19970;DHT22;10146;47.754;9.566;2022-08-07T04:09:51;16.40;99.90
19970;DHT22;10146;47.754;9.566;2022-08-07T04:12:17;16.40;99.90
19970;DHT22;10146;47.754;9.566;2022-08-07T04:14:44;16.30;99.90
19970;DHT22;10146;47.754;9.566;2022-08-07T04:17:10;16.40;99.90
19970;DHT22;10146;47.754;9.566;2022-08-07T04:19:39;16.30;99.90
19970;DHT22;10146;47.754;9.566;2022-08-07T04:22:05;16.30;99.90
19970;DHT22;10146;47.754;9.566;2022-08-07T04:24:32;16.40;99.90
19970;DHT22;10146;47.754;9.566;2022-08-07T04:26:57;16.40;99.90
19970;DHT22;10146;47.754;9.566;2022-08-07T04:29:27;16.50;99.90
19970;DHT22;10146;47.754;9.566;2022-08-07T04:31:53;16.60;99.90
19970;DHT22;10146;47.754;9.566;2022-08-07T04:34:21;16.60;99.90
19970;DHT22;10146;47.754;9.566;2022-08-07T04:36:47;16.70;99.90
19970;DHT22;10146;47.754;9.566;2022-08-07T04:39:12;16.70;99.90
19970;DHT22;10146;47.754;9.566;2022-08-07T04:41:38;16.70;99.90
19970;DHT22;10146;47.754;9.566;2022-08-07T04:44:04;16.80;99.90
19970;DHT22;10146;47.754;9.566;2022-08-07T04:52:20;17.00;99.90
19970;DHT22;10146;47.754;9.566;2022-08-07T04:55:00;17.00;99.90
19970;DHT22;10146;47.754;9.566;2022-08-07T05:00:05;17.10;99.90
19970;DHT22;10146;47.754;9.566;2022-08-07T05:02:42;17.10;99.90
19970;DHT22;10146;47.754;9.566;2022-08-07T05:05:34;17.10;99.90
19970;DHT22;10146;47.754;9.566;2022-08-07T05:08:06;17.20;99.90
19970;DHT22;10146;47.754;9.566;2022-08-07T05:10:40;17.20;99.90
19970;DHT22;10146;47.754;9.566;2022-08-07T05:13:18;17.20;99.90
19970;DHT22;10146;47.754;9.566;2022-08-07T05:15:48;17.30;99.90
19970;DHT22;10146;47.754;9.566;2022-08-07T05:18:28;17.30;99.90
19970;DHT22;10146;47.754;9.566;2022-08-07T05:21:01;17.40;99.90
19970;DHT22;10146;47.754;9.566;2022-08-07T05:23:55;17.40;99.90
19970;DHT22;10146;47.754;9.566;2022-08-07T05:26:20;17.40;99.90
19970;DHT22;10146;47.754;9.566;2022-08-07T05:28:49;17.50;99.90
19970;DHT22;10146;47.754;9.566;2022-08-07T05:31:18;17.60;99.90
19970;DHT22;10146;47.754;9.566;2022-08-07T05:33:45;17.60;99.90
19970;DHT22;10146;47.754;9.566;2022-08-07T05:36:12;17.60;99.90
19970;DHT22;10146;47.754;9.566;2022-08-07T05:38:38;17.60;99.90
19970;DHT22;10146;47.754;9.566;2022-08-07T05:41:05;17.70;99.90
19970;DHT22;10146;47.754;9.566;2022-08-07T05:43:32;17.80;99.90
19970;DHT22;10146;47.754;9.566;2022-08-07T05:45:59;17.80;99.90
19970;DHT22;10146;47.754;9.566;2022-08-07T05:48:27;17.80;99.90
19970;DHT22;10146;47.754;9.566;2022-08-07T05:50:55;18.00;99.90
19970;DHT22;10146;47.754;9.566;2022-08-07T05:53:20;18.10;99.90
19970;DHT22;10146;47.754;9.566;2022-08-07T05:55:46;18.20;99.90
19970;DHT22;10146;47.754;9.566;2022-08-07T05:58:13;18.30;99.90
19970;DHT22;10146;47.754;9.566;2022-08-07T06:00:40;18.40;99.90
19970;DHT22;10146;47.754;9.566;2022-08-07T06:03:08;18.50;99.90
19970;DHT22;10146;47.754;9.566;2022-08-07T06:05:34;18.50;99.90
19970;DHT22;10146;47.754;9.566;2022-08-07T06:08:00;18.60;99.90
19970;DHT22;10146;47.754;9.566;2022-08-07T06:10:27;18.70;99.90
19970;DHT22;10146;47.754;9.566;2022-08-07T06:12:54;18.60;99.90
19970;DHT22;10146;47.754;9.566;2022-08-07T06:15:19;18.70;99.90
19970;DHT22;10146;47.754;9.566;2022-08-07T06:17:46;18.80;99.90
19970;DHT22;10146;47.754;9.566;2022-08-07T06:20:12;18.80;99.90
19970;DHT22;10146;47.754;9.566;2022-08-07T06:22:39;18.90;99.90
19970;DHT22;10146;47.754;9.566;2022-08-07T06:25:06;19.00;99.90
19970;DHT22;10146;47.754;9.566;2022-08-07T06:27:32;19.10;99.90
19970;DHT22;10146;47.754;9.566;2022-08-07T06:29:59;19.00;99.90
19970;DHT22;10146;47.754;9.566;2022-08-07T06:32:25;19.10;99.90
19970;DHT22;10146;47.754;9.566;2022-08-07T06:34:51;19.00;99.90
19970;DHT22;10146;47.754;9.566;2022-08-07T06:37:16;19.10;99.90
19970;DHT22;10146;47.754;9.566;2022-08-07T06:39:42;19.20;99.90
19970;DHT22;10146;47.754;9.566;2022-08-07T06:42:14;19.10;99.90
19970;DHT22;10146;47.754;9.566;2022-08-07T06:44:42;19.10;99.90
19970;DHT22;10146;47.754;9.566;2022-08-07T06:47:09;19.10;99.90
19970;DHT22;10146;47.754;9.566;2022-08-07T06:49:34;19.20;99.90
19970;DHT22;10146;47.754;9.566;2022-08-07T06:52:01;19.20;99.90
19970;DHT22;10146;47.754;9.566;2022-08-07T06:54:27;19.30;99.90
19970;DHT22;10146;47.754;9.566;2022-08-07T06:56:55;19.30;99.90
19970;DHT22;10146;47.754;9.566;2022-08-07T06:59:39;19.30;99.90
19970;DHT22;10146;47.754;9.566;2022-08-07T07:02:08;19.20;99.90
19970;DHT22;10146;47.754;9.566;2022-08-07T07:04:37;19.20;99.90
19970;DHT22;10146;47.754;9.566;2022-08-07T07:07:03;19.10;99.90
19970;DHT22;10146;47.754;9.566;2022-08-07T07:09:31;19.20;99.90
19970;DHT22;10146;47.754;9.566;2022-08-07T07:14:37;19.30;99.90
19970;DHT22;10146;47.754;9.566;2022-08-07T07:17:09;19.30;99.90
19970;DHT22;10146;47.754;9.566;2022-08-07T07:19:41;19.30;99.90
19970;DHT22;10146;47.754;9.566;2022-08-07T07:22:09;19.40;99.90
19970;DHT22;10146;47.754;9.566;2022-08-07T07:24:37;19.40;99.90
19970;DHT22;10146;47.754;9.566;2022-08-07T07:27:05;19.50;99.90
19970;DHT22;10146;47.754;9.566;2022-08-07T07:29:39;19.60;99.90
19970;DHT22;10146;47.754;9.566;2022-08-07T07:32:10;19.70;99.90
19970;DHT22;10146;47.754;9.566;2022-08-07T07:34:40;19.90;99.90
19970;DHT22;10146;47.754;9.566;2022-08-07T07:37:07;20.10;99.90
19970;DHT22;10146;47.754;9.566;2022-08-07T07:39:36;20.10;99.90
19970;DHT22;10146;47.754;9.566;2022-08-07T07:42:04;20.20;99.90
19970;DHT22;10146;47.754;9.566;2022-08-07T07:44:31;20.00;99.90
19970;DHT22;10146;47.754;9.566;2022-08-07T07:47:00;20.00;99.90
19970;DHT22;10146;47.754;9.566;2022-08-07T07:49:29;20.00;99.90
19970;DHT22;10146;47.754;9.566;2022-08-07T07:51:56;20.10;99.90
19970;DHT22;10146;47.754;9.566;2022-08-07T07:54:27;20.10;99.90
19970;DHT22;10146;47.754;9.566;2022-08-07T07:56:56;20.30;99.90
19970;DHT22;10146;47.754;9.566;2022-08-07T07:59:22;20.30;99.90
19970;DHT22;10146;47.754;9.566;2022-08-07T08:01:49;20.40;99.90
19970;DHT22;10146;47.754;9.566;2022-08-07T08:04:16;20.50;99.90
19970;DHT22;10146;47.754;9.566;2022-08-07T08:06:44;20.50;99.90
19970;DHT22;10146;47.754;9.566;2022-08-07T08:09:10;20.50;99.90
19970;DHT22;10146;47.754;9.566;2022-08-07T08:11:37;20.50;99.90
19970;DHT22;10146;47.754;9.566;2022-08-07T08:14:03;20.50;99.90
19970;DHT22;10146;47.754;9.566;2022-08-07T08:16:34;20.50;99.90
19970;DHT22;10146;47.754;9.566;2022-08-07T08:19:03;20.60;99.90
19970;DHT22;10146;47.754;9.566;2022-08-07T08:21:30;20.80;99.90
19970;DHT22;10146;47.754;9.566;2022-08-07T08:24:15;20.80;99.90
19970;DHT22;10146;47.754;9.566;2022-08-07T08:27:02;20.90;99.90
19970;DHT22;10146;47.754;9.566;2022-08-07T08:29:57;21.00;99.90
19970;DHT22;10146;47.754;9.566;2022-08-07T08:32:28;21.00;99.90
19970;DHT22;10146;47.754;9.566;2022-08-07T08:34:57;21.00;99.90
19970;DHT22;10146;47.754;9.566;2022-08-07T08:37:27;21.10;99.90
19970;DHT22;10146;47.754;9.566;2022-08-07T08:39:57;21.10;99.90
19970;DHT22;10146;47.754;9.566;2022-08-07T08:42:36;21.10;99.90
19970;DHT22;10146;47.754;9.566;2022-08-07T08:45:28;21.10;99.90
19970;DHT22;10146;47.754;9.566;2022-08-07T08:48:34;21.10;99.90
19970;DHT22;10146;47.754;9.566;2022-08-07T08:54:05;21.20;99.90
19970;DHT22;10146;47.754;9.566;2022-08-07T08:56:36;21.20;99.90
19970;DHT22;10146;47.754;9.566;2022-08-07T08:59:26;21.30;99.90
19970;DHT22;10146;47.754;9.566;2022-08-07T09:02:50;21.40;99.90
19970;DHT22;10146;47.754;9.566;2022-08-07T09:04:59;21.40;99.90
19970;DHT22;10146;47.754;9.566;2022-08-07T09:10:16;21.50;99.90
19970;DHT22;10146;47.754;9.566;2022-08-07T09:21:35;21.70;99.90
19970;DHT22;10146;47.754;9.566;2022-08-07T09:27:39;22.00;99.90
19970;DHT22;10146;47.754;9.566;2022-08-07T09:30:08;22.20;99.90
19970;DHT22;10146;47.754;9.566;2022-08-07T09:32:59;22.30;99.90
19970;DHT22;10146;47.754;9.566;2022-08-07T09:35:43;22.20;99.90
19970;DHT22;10146;47.754;9.566;2022-08-07T09:38:30;22.30;99.90
19970;DHT22;10146;47.754;9.566;2022-08-07T09:41:15;22.10;99.90
19970;DHT22;10146;47.754;9.566;2022-08-07T09:44:03;22.10;99.90
19970;DHT22;10146;47.754;9.566;2022-08-07T09:49:40;22.40;99.90
19970;DHT22;10146;47.754;9.566;2022-08-07T10:03:30;22.50;99.90
19970;DHT22;10146;47.754;9.566;2022-08-07T10:32:19;23.50;99.90
19970;DHT22;10146;47.754;9.566;2022-08-07T10:35:04;23.50;99.90
19970;DHT22;10146;47.754;9.566;2022-08-07T10:40:35;23.50;99.90
19970;DHT22;10146;47.754;9.566;2022-08-07T10:43:25;23.70;99.90
19970;DHT22;10146;47.754;9.566;2022-08-07T10:46:12;23.70;99.90
19970;DHT22;10146;47.754;9.566;2022-08-07T10:48:54;23.70;99.90
19970;DHT22;10146;47.754;9.566;2022-08-07T10:51:56;23.60;99.90
19970;DHT22;10146;47.754;9.566;2022-08-07T10:54:31;23.60;99.90
19970;DHT22;10146;47.754;9.566;2022-08-07T10:57:18;23.60;99.90
19970;DHT22;10146;47.754;9.566;2022-08-07T11:10:29;23.60;99.90
19970;DHT22;10146;47.754;9.566;2022-08-07T11:13:03;23.70;99.90
19970;DHT22;10146;47.754;9.566;2022-08-07T11:15:37;23.90;99.90
19970;DHT22;10146;47.754;9.566;2022-08-07T11:18:31;24.00;99.90
19970;DHT22;10146;47.754;9.566;2022-08-07T11:21:05;23.90;99.90
19970;DHT22;10146;47.754;9.566;2022-08-07T11:29:41;23.90;99.60
19970;DHT22;10146;47.754;9.566;2022-08-07T11:32:22;24.00;99.70
19970;DHT22;10146;47.754;9.566;2022-08-07T11:34:56;24.10;99.30
19970;DHT22;10146;47.754;9.566;2022-08-07T11:43:25;24.10;99.20
19970;DHT22;10146;47.754;9.566;2022-08-07T11:46:13;24.20;98.70
19970;DHT22;10146;47.754;9.566;2022-08-07T11:54:48;24.50;97.90
19970;DHT22;10146;47.754;9.566;2022-08-07T11:57:39;24.60;98.20
19970;DHT22;10146;47.754;9.566;2022-08-07T12:00:19;24.50;98.20
19970;DHT22;10146;47.754;9.566;2022-08-07T12:11:41;24.30;96.30
19970;DHT22;10146;47.754;9.566;2022-08-07T12:16:51;24.00;97.60
19970;DHT22;10146;47.754;9.566;2022-08-07T12:19:30;23.80;97.90
19970;DHT22;10146;47.754;9.566;2022-08-07T12:22:16;23.80;99.00
19970;DHT22;10146;47.754;9.566;2022-08-07T12:25:18;23.80;99.60
19970;DHT22;10146;47.754;9.566;2022-08-07T12:28:14;23.80;99.30
19970;DHT22;10146;47.754;9.566;2022-08-07T12:30:43;23.80;99.50
19970;DHT22;10146;47.754;9.566;2022-08-07T12:33:13;23.80;99.20
19970;DHT22;10146;47.754;9.566;2022-08-07T12:35:44;23.90;99.50
19970;DHT22;10146;47.754;9.566;2022-08-07T12:38:12;24.00;99.70
19970;DHT22;10146;47.754;9.566;2022-08-07T12:40:39;24.00;99.50
19970;DHT22;10146;47.754;9.566;2022-08-07T12:43:07;24.00;99.30
19970;DHT22;10146;47.754;9.566;2022-08-07T12:45:46;24.00;99.40
19970;DHT22;10146;47.754;9.566;2022-08-07T12:48:38;24.00;99.00
19970;DHT22;10146;47.754;9.566;2022-08-07T12:51:11;24.10;98.50
19970;DHT22;10146;47.754;9.566;2022-08-07T12:54:03;24.10;98.60
19970;DHT22;10146;47.754;9.566;2022-08-07T12:56:34;24.30;99.10
19970;DHT22;10146;47.754;9.566;2022-08-07T12:59:03;24.20;98.50
19970;DHT22;10146;47.754;9.566;2022-08-07T13:01:43;24.20;99.10
19970;DHT22;10146;47.754;9.566;2022-08-07T13:04:24;24.20;98.80
19970;DHT22;10146;47.754;9.566;2022-08-07T13:07:16;24.00;99.10
19970;DHT22;10146;47.754;9.566;2022-08-07T13:15:02;24.10;98.50
19970;DHT22;10146;47.754;9.566;2022-08-07T13:17:42;24.20;98.30
19970;DHT22;10146;47.754;9.566;2022-08-07T13:22:58;24.30;97.80
19970;DHT22;10146;47.754;9.566;2022-08-07T13:25:29;24.10;98.50
19970;DHT22;10146;47.754;9.566;2022-08-07T13:28:09;24.20;99.00
19970;DHT22;10146;47.754;9.566;2022-08-07T13:30:39;24.30;98.80
19970;DHT22;10146;47.754;9.566;2022-08-07T13:36:03;24.60;97.50
19970;DHT22;10146;47.754;9.566;2022-08-07T13:39:03;24.70;97.70
19970;DHT22;10146;47.754;9.566;2022-08-07T13:41:41;24.60;97.60
19970;DHT22;10146;47.754;9.566;2022-08-07T13:44:07;24.70;95.90
19970;DHT22;10146;47.754;9.566;2022-08-07T13:46:44;24.60;96.20
19970;DHT22;10146;47.754;9.566;2022-08-07T13:49:12;24.50;96.60
19970;DHT22;10146;47.754;9.566;2022-08-07T13:51:41;24.50;96.50
19970;DHT22;10146;47.754;9.566;2022-08-07T13:54:12;24.50;96.90
19970;DHT22;10146;47.754;9.566;2022-08-07T13:56:40;24.40;96.20
19970;DHT22;10146;47.754;9.566;2022-08-07T13:59:27;24.40;96.50
19970;DHT22;10146;47.754;9.566;2022-08-07T14:02:04;24.40;96.60
19970;DHT22;10146;47.754;9.566;2022-08-07T14:04:43;24.40;96.10
19970;DHT22;10146;47.754;9.566;2022-08-07T14:07:15;24.40;96.50
19970;DHT22;10146;47.754;9.566;2022-08-07T14:09:41;24.30;96.60
19970;DHT22;10146;47.754;9.566;2022-08-07T14:12:17;24.30;96.20
19970;DHT22;10146;47.754;9.566;2022-08-07T14:15:04;24.10;96.70
19970;DHT22;10146;47.754;9.566;2022-08-07T14:17:34;24.00;96.70
19970;DHT22;10146;47.754;9.566;2022-08-07T14:20:12;24.00;96.80
19970;DHT22;10146;47.754;9.566;2022-08-07T14:22:41;24.00;96.70
19970;DHT22;10146;47.754;9.566;2022-08-07T14:25:14;23.80;97.10
19970;DHT22;10146;47.754;9.566;2022-08-07T14:27:50;23.80;97.40
19970;DHT22;10146;47.754;9.566;2022-08-07T14:30:17;23.80;97.00
19970;DHT22;10146;47.754;9.566;2022-08-07T14:32:45;23.80;97.10
19970;DHT22;10146;47.754;9.566;2022-08-07T14:35:20;23.80;96.80
19970;DHT22;10146;47.754;9.566;2022-08-07T14:37:49;23.70;97.30
19970;DHT22;10146;47.754;9.566;2022-08-07T14:40:22;23.80;97.40
19970;DHT22;10146;47.754;9.566;2022-08-07T14:43:10;23.80;97.80
19970;DHT22;10146;47.754;9.566;2022-08-07T14:45:44;23.80;97.50
19970;DHT22;10146;47.754;9.566;2022-08-07T14:48:12;23.80;99.30
19970;DHT22;10146;47.754;9.566;2022-08-07T14:50:45;23.70;97.20
19970;DHT22;10146;47.754;9.566;2022-08-07T14:53:12;23.70;97.10
19970;DHT22;10146;47.754;9.566;2022-08-07T14:55:39;23.80;96.80
19970;DHT22;10146;47.754;9.566;2022-08-07T14:58:08;23.80;96.20
19970;DHT22;10146;47.754;9.566;2022-08-07T15:00:35;23.80;95.80
19970;DHT22;10146;47.754;9.566;2022-08-07T15:03:05;23.90;96.00
19970;DHT22;10146;47.754;9.566;2022-08-07T15:05:31;23.90;96.30
19970;DHT22;10146;47.754;9.566;2022-08-07T15:07:57;24.00;96.20
19970;DHT22;10146;47.754;9.566;2022-08-07T15:10:25;24.10;96.00
19970;DHT22;10146;47.754;9.566;2022-08-07T15:12:56;24.10;95.30
19970;DHT22;10146;47.754;9.566;2022-08-07T15:15:44;24.10;95.40
19970;DHT22;10146;47.754;9.566;2022-08-07T15:18:17;24.10;95.80
19970;DHT22;10146;47.754;9.566;2022-08-07T15:20:45;24.20;96.10
19970;DHT22;10146;47.754;9.566;2022-08-07T15:23:14;24.20;95.20
19970;DHT22;10146;47.754;9.566;2022-08-07T15:25:51;24.20;95.00
19970;DHT22;10146;47.754;9.566;2022-08-07T15:28:21;24.20;95.10
19970;DHT22;10146;47.754;9.566;2022-08-07T15:30:48;24.20;95.00
19970;DHT22;10146;47.754;9.566;2022-08-07T15:33:18;24.20;94.60
19970;DHT22;10146;47.754;9.566;2022-08-07T15:35:52;24.20;94.60
19970;DHT22;10146;47.754;9.566;2022-08-07T15:38:29;24.10;95.20
19970;DHT22;10146;47.754;9.566;2022-08-07T15:40:55;24.10;94.90
19970;DHT22;10146;47.754;9.566;2022-08-07T15:43:25;24.10;95.60
19970;DHT22;10146;47.754;9.566;2022-08-07T15:45:53;24.10;96.10
19970;DHT22;10146;47.754;9.566;2022-08-07T15:48:32;24.00;96.20
19970;DHT22;10146;47.754;9.566;2022-08-07T15:51:06;24.00;96.60
19970;DHT22;10146;47.754;9.566;2022-08-07T15:53:33;24.00;96.20
19970;DHT22;10146;47.754;9.566;2022-08-07T15:56:03;23.90;96.00
19970;DHT22;10146;47.754;9.566;2022-08-07T15:58:47;23.80;96.40
19970;DHT22;10146;47.754;9.566;2022-08-07T16:01:21;23.70;96.10
19970;DHT22;10146;47.754;9.566;2022-08-07T16:03:51;23.70;95.90
19970;DHT22;10146;47.754;9.566;2022-08-07T16:06:36;23.60;96.40
19970;DHT22;10146;47.754;9.566;2022-08-07T16:09:13;23.60;96.50
19970;DHT22;10146;47.754;9.566;2022-08-07T16:32:37;23.30;97.50
19970;DHT22;10146;47.754;9.566;2022-08-07T16:35:17;23.30;97.40
19970;DHT22;10146;47.754;9.566;2022-08-07T16:52:19;23.20;98.20
19970;DHT22;10146;47.754;9.566;2022-08-07T16:59:51;23.20;98.00
19970;DHT22;10146;47.754;9.566;2022-08-07T17:08:04;23.10;98.50
19970;DHT22;10146;47.754;9.566;2022-08-07T17:10:56;23.00;98.60
19970;DHT22;10146;47.754;9.566;2022-08-07T17:13:55;23.00;99.90
19970;DHT22;10146;47.754;9.566;2022-08-07T17:16:48;22.90;99.90
19970;DHT22;10146;47.754;9.566;2022-08-07T17:19:21;22.80;99.90
19970;DHT22;10146;47.754;9.566;2022-08-07T17:21:56;22.70;99.90
19970;DHT22;10146;47.754;9.566;2022-08-07T17:27:42;22.50;99.90
19970;DHT22;10146;47.754;9.566;2022-08-07T17:30:10;22.50;99.90
19970;DHT22;10146;47.754;9.566;2022-08-07T17:33:01;22.50;99.90
19970;DHT22;10146;47.754;9.566;2022-08-07T17:35:54;22.40;99.90
19970;DHT22;10146;47.754;9.566;2022-08-07T17:43:31;22.40;99.90
19970;DHT22;10146;47.754;9.566;2022-08-07T17:46:11;22.30;99.90
19970;DHT22;10146;47.754;9.566;2022-08-07T17:48:57;22.30;99.90
19970;DHT22;10146;47.754;9.566;2022-08-07T17:51:33;22.30;99.90
19970;DHT22;10146;47.754;9.566;2022-08-07T17:54:23;22.30;99.90
19970;DHT22;10146;47.754;9.566;2022-08-07T17:57:02;22.20;99.90
19970;DHT22;10146;47.754;9.566;2022-08-07T17:59:55;22.20;99.90
19970;DHT22;10146;47.754;9.566;2022-08-07T18:05:30;22.10;99.90
19970;DHT22;10146;47.754;9.566;2022-08-07T18:10:51;22.10;99.90
19970;DHT22;10146;47.754;9.566;2022-08-07T18:13:47;22.00;99.90
19970;DHT22;10146;47.754;9.566;2022-08-07T18:16:32;22.00;99.90
19970;DHT22;10146;47.754;9.566;2022-08-07T18:21:57;21.90;99.90
19970;DHT22;10146;47.754;9.566;2022-08-07T18:24:47;21.80;99.90
19970;DHT22;10146;47.754;9.566;2022-08-07T18:30:15;21.70;99.90
19970;DHT22;10146;47.754;9.566;2022-08-07T18:41:21;21.40;99.90
19970;DHT22;10146;47.754;9.566;2022-08-07T18:43:52;21.30;99.90
19970;DHT22;10146;47.754;9.566;2022-08-07T18:51:39;21.10;99.90
19970;DHT22;10146;47.754;9.566;2022-08-07T18:54:40;21.00;99.90
19970;DHT22;10146;47.754;9.566;2022-08-07T18:57:41;20.90;99.90
19970;DHT22;10146;47.754;9.566;2022-08-07T19:00:14;20.70;99.90
19970;DHT22;10146;47.754;9.566;2022-08-07T19:05:32;20.60;99.90
19970;DHT22;10146;47.754;9.566;2022-08-07T19:08:16;20.40;99.90
19970;DHT22;10146;47.754;9.566;2022-08-07T19:10:59;20.40;99.90
19970;DHT22;10146;47.754;9.566;2022-08-07T19:13:49;20.30;99.90
19970;DHT22;10146;47.754;9.566;2022-08-07T19:16:46;20.30;99.90
19970;DHT22;10146;47.754;9.566;2022-08-07T19:19:44;20.30;99.90
19970;DHT22;10146;47.754;9.566;2022-08-07T19:24:53;20.10;99.90
19970;DHT22;10146;47.754;9.566;2022-08-07T19:27:22;20.00;99.90
19970;DHT22;10146;47.754;9.566;2022-08-07T19:29:59;20.00;99.90
19970;DHT22;10146;47.754;9.566;2022-08-07T19:32:26;19.90;99.90